createdAt,value
2023-04-18T00:02:34.740Z,100568.16
2023-04-18T00:07:40.103Z,100566.34
2023-04-18T00:12:44.817Z,100573.16
2023-04-18T00:17:49.988Z,100561.47
2023-04-18T00:22:56.193Z,100579.31
2023-04-18T00:28:01.288Z,100582.63
2023-04-18T00:33:06.684Z,100589.56
2023-04-18T00:38:11.831Z,100575.31
2023-04-18T00:43:18.807Z,100577.91
2023-04-18T00:48:25.729Z,100584.56
2023-04-18T00:53:32.237Z,100584.16
2023-04-18T00:58:37.446Z,100577.16
2023-04-18T01:03:42.212Z,100572.66
2023-04-18T01:08:47.509Z,100587.22
2023-04-18T01:14:08.421Z,100598.06
2023-04-18T01:19:14.208Z,100566.88
2023-04-18T01:24:19.941Z,100563.47
2023-04-18T01:29:26.270Z,100575.25
2023-04-18T01:34:33.020Z,100578.63
2023-04-18T01:39:38.100Z,100583.00
2023-04-18T01:44:43.104Z,100588.38
2023-04-18T01:49:51.371Z,100591.72
2023-04-18T01:54:56.472Z,100606.34
2023-04-18T02:00:02.586Z,100607.59
2023-04-18T02:05:07.464Z,100614.59
2023-04-18T02:10:16.688Z,100608.13
2023-04-18T02:15:24.037Z,100632.63
2023-04-18T02:20:33.005Z,100623.03
2023-04-18T02:25:40.508Z,100614.91
2023-04-18T02:30:47.373Z,100606.72
2023-04-18T02:35:52.240Z,100603.81
2023-04-18T02:40:58.072Z,100602.78
2023-04-18T02:46:04.715Z,100608.75
2023-04-18T02:51:11.231Z,100604.94
2023-04-18T02:56:20.112Z,100602.38
2023-04-18T03:02:03.136Z,100601.72
2023-04-18T03:07:11.078Z,100591.88
2023-04-18T03:12:17.371Z,100577.84
2023-04-18T03:17:22.897Z,100566.22
2023-04-18T03:22:28.822Z,100553.63
2023-04-18T03:27:36.289Z,100553.09
2023-04-18T03:32:43.273Z,100534.13
2023-04-18T03:37:48.638Z,100523.13
2023-04-18T03:43:01.580Z,100508.75
2023-04-18T03:48:08.446Z,100516.53
2023-04-18T03:53:18.991Z,100502.09
2023-04-18T03:58:25.808Z,100482.75
2023-04-18T04:03:32.067Z,100482.63
2023-04-18T04:08:39.062Z,100470.53
2023-04-18T04:13:44.010Z,100473.88
2023-04-18T04:18:52.032Z,100463.72
2023-04-18T04:24:02.563Z,100456.00
2023-04-18T04:29:13.074Z,100470.19
2023-04-18T04:34:20.644Z,100462.69
2023-04-18T04:39:25.853Z,100444.34
2023-04-18T04:44:50.333Z,100460.63
2023-04-18T04:49:55.897Z,100443.56
2023-04-18T04:55:01.022Z,100443.81
2023-04-18T05:00:09.509Z,100441.41
2023-04-18T05:05:14.914Z,100434.88
2023-04-18T05:10:20.431Z,100428.94
2023-04-18T05:15:26.449Z,100405.03
2023-04-18T05:20:31.522Z,100400.38
2023-04-18T05:25:37.697Z,100389.22
2023-04-18T05:30:42.251Z,100392.72
2023-04-18T05:35:46.585Z,100375.56
2023-04-18T05:40:52.463Z,100376.13
2023-04-18T05:45:58.017Z,100359.50
2023-04-18T05:51:04.399Z,100383.38
2023-04-18T05:56:09.482Z,100360.78
2023-04-18T06:01:16.236Z,100363.13
2023-04-18T06:06:21.471Z,100364.50
2023-04-18T06:11:26.451Z,100365.53
2023-04-18T06:16:31.754Z,100359.25
2023-04-18T06:21:37.422Z,100352.44
2023-04-18T06:26:42.664Z,100345.25
2023-04-18T06:31:48.002Z,100341.88
2023-04-18T06:36:53.448Z,100342.84
2023-04-18T06:42:00.286Z,100336.50
2023-04-18T06:47:06.422Z,100350.06
2023-04-18T06:52:11.756Z,100343.97
2023-04-18T06:57:16.926Z,100317.44
2023-04-18T07:02:21.934Z,100317.88
2023-04-18T07:07:27.789Z,100309.44
2023-04-18T07:12:32.133Z,100313.28
2023-04-18T07:17:38.434Z,100302.50
2023-04-18T07:22:44.052Z,100297.22
2023-04-18T07:27:49.165Z,100296.09
2023-04-18T07:32:54.219Z,100279.88
2023-04-18T07:37:58.561Z,100271.34
2023-04-18T07:43:03.711Z,100265.16
2023-04-18T07:48:08.999Z,100261.47
2023-04-18T07:53:14.208Z,100250.59
2023-04-18T07:58:19.540Z,100237.28
2023-04-18T08:03:24.821Z,100240.22
2023-04-18T08:08:29.916Z,100225.78
2023-04-18T08:13:35.651Z,100220.44
2023-04-18T08:18:40.737Z,100215.63
2023-04-18T08:23:45.661Z,100203.97
2023-04-18T08:28:50.493Z,100190.63
2023-04-18T08:33:55.601Z,100202.22
2023-04-18T08:39:00.583Z,100192.03
2023-04-18T08:44:06.783Z,100193.19
2023-04-18T08:49:12.282Z,100184.19
2023-04-18T08:54:17.067Z,100188.63
2023-04-18T08:59:22.102Z,100192.44
2023-04-18T09:04:37.464Z,100195.75
2023-04-18T09:09:43.439Z,100214.44
2023-04-18T09:14:52.223Z,100196.38
2023-04-18T09:19:58.123Z,100189.72
2023-04-18T09:25:03.109Z,100189.81
2023-04-18T09:30:09.974Z,100192.69
2023-04-18T09:35:27.321Z,100187.38
2023-04-18T09:40:33.659Z,100182.28
2023-04-18T09:45:39.322Z,100190.22
2023-04-18T09:50:46.438Z,100179.97
2023-04-18T09:55:57.807Z,100189.75
2023-04-18T10:01:04.913Z,100173.50
2023-04-18T10:06:11.230Z,100173.25
2023-04-18T10:11:18.585Z,100174.00
2023-04-18T10:16:24.648Z,100180.47
2023-04-18T10:21:32.391Z,100192.63
2023-04-18T10:26:51.549Z,100202.88
2023-04-18T10:31:56.969Z,100201.41
2023-04-18T10:37:08.524Z,100195.34
2023-04-18T10:42:13.730Z,100200.69
2023-04-18T10:47:22.554Z,100222.75
2023-04-18T10:52:28.650Z,100223.69
2023-04-18T10:57:44.852Z,100226.25
2023-04-18T11:03:01.392Z,100246.63
2023-04-18T11:08:07.388Z,100252.91
2023-04-18T11:13:14.085Z,100280.44
2023-04-18T11:18:19.135Z,100264.09
2023-04-18T11:23:26.375Z,100265.19
2023-04-18T11:28:31.914Z,100260.19
2023-04-18T11:33:40.474Z,100283.88
2023-04-18T11:38:45.711Z,100266.34
2023-04-18T11:43:51.607Z,100299.22
2023-04-18T11:48:57.221Z,100303.94
2023-04-18T11:54:03.356Z,100314.13
2023-04-18T11:59:12.027Z,100321.66
2023-04-18T12:04:18.184Z,100363.38
2023-04-18T12:09:28.051Z,100342.13
2023-04-18T12:14:35.545Z,100364.28
2023-04-18T12:19:48.008Z,100355.41
2023-04-18T12:25:32.062Z,100362.44
2023-04-18T12:30:38.781Z,100405.69
2023-04-18T12:35:45.821Z,100410.25
2023-04-18T12:40:55.146Z,100402.63
2023-04-18T12:46:01.783Z,100440.41
2023-04-18T12:51:09.591Z,100432.91
2023-04-18T12:56:20.433Z,100442.59
2023-04-18T13:01:25.590Z,100477.47
2023-04-18T13:06:31.910Z,100461.88
2023-04-18T13:11:38.934Z,100463.81
2023-04-18T13:16:46.273Z,100474.09
2023-04-18T13:21:52.645Z,100500.19
2023-04-18T13:26:58.737Z,100485.88
2023-04-18T13:32:04.622Z,100475.22
2023-04-18T13:37:11.284Z,100514.75
2023-04-18T13:42:17.310Z,100498.94
2023-04-18T13:47:23.687Z,100529.19
2023-04-18T13:52:31.144Z,100510.72
2023-04-18T13:57:42.369Z,100514.75
2023-04-18T14:02:48.961Z,100555.09
2023-04-18T14:08:03.806Z,100526.09
2023-04-18T14:13:10.837Z,100518.09
2023-04-18T14:18:17.990Z,100533.03
2023-04-18T14:23:25.376Z,100542.34
2023-04-18T14:28:32.506Z,100516.03
2023-04-18T14:33:39.426Z,100503.09
2023-04-18T14:38:55.168Z,100502.72
2023-04-18T14:44:02.298Z,100497.63
2023-04-18T14:49:09.114Z,100504.50
2023-04-18T14:54:14.860Z,100493.41
2023-04-18T14:59:21.122Z,100492.22
2023-04-18T15:04:27.431Z,100494.06
2023-04-18T15:09:39.988Z,100500.31
2023-04-18T15:14:45.966Z,100471.75
2023-04-18T15:19:51.536Z,100487.41
2023-04-18T15:24:58.303Z,100497.72
2023-04-18T15:30:06.867Z,100488.06
2023-04-18T15:35:14.401Z,100505.56
2023-04-18T15:40:21.613Z,100495.53
2023-04-18T15:45:28.428Z,100496.16
2023-04-18T15:50:35.491Z,100508.47
2023-04-18T15:55:41.964Z,100475.97
2023-04-18T16:00:48.124Z,100476.75
2023-04-18T16:05:54.176Z,100465.66
2023-04-18T16:11:00.103Z,100495.22
2023-04-18T16:16:07.566Z,100474.84
2023-04-18T16:21:17.346Z,100476.69
2023-04-18T16:26:22.938Z,100458.19
2023-04-18T16:31:28.422Z,100417.50
2023-04-18T16:36:39.151Z,100386.50
2023-04-18T16:41:45.920Z,100384.22
2023-04-18T16:46:51.531Z,100404.75
2023-04-18T16:51:58.154Z,100401.66
2023-04-18T16:57:04.218Z,100393.44
2023-04-18T17:02:11.120Z,100389.72
2023-04-18T17:07:18.271Z,100375.97
2023-04-18T17:12:23.673Z,100374.50
2023-04-18T17:17:29.270Z,100349.47
2023-04-18T17:22:36.289Z,100334.69
2023-04-18T17:27:42.631Z,100341.00
2023-04-18T17:32:48.285Z,100339.59
2023-04-18T17:37:54.172Z,100321.31
2023-04-18T17:42:59.543Z,100322.50
2023-04-18T17:48:05.048Z,100319.19
2023-04-18T17:53:10.594Z,100322.41
2023-04-18T17:58:18.147Z,100331.00
2023-04-18T18:03:23.955Z,100318.25
2023-04-18T18:08:30.223Z,100329.88
2023-04-18T18:13:36.729Z,100337.00
2023-04-18T18:18:43.149Z,100331.81
2023-04-18T18:23:48.859Z,100325.25
2023-04-18T18:28:55.105Z,100342.22
2023-04-18T18:34:01.671Z,100313.00
2023-04-18T18:39:07.105Z,100310.31
2023-04-18T18:44:13.015Z,100307.22
2023-04-18T18:49:19.705Z,100304.06
2023-04-18T18:54:24.850Z,100299.50
2023-04-18T18:59:31.332Z,100269.09
2023-04-18T19:04:36.945Z,100270.06
2023-04-18T19:09:41.862Z,100240.56
2023-04-18T19:14:48.199Z,100257.88
2023-04-18T19:20:01.428Z,100280.53
2023-04-18T19:25:07.504Z,100284.22
2023-04-18T19:30:13.668Z,100272.72
2023-04-18T19:35:20.364Z,100245.00
2023-04-18T19:40:28.095Z,100261.97
2023-04-18T19:45:34.193Z,100265.66
2023-04-18T19:50:43.619Z,100253.13
2023-04-18T19:55:49.872Z,100263.06
2023-04-18T20:00:55.613Z,100257.84
2023-04-18T20:06:01.230Z,100272.53
2023-04-18T20:11:10.153Z,100276.19
2023-04-18T20:16:19.210Z,100279.22
2023-04-18T20:21:24.811Z,100256.69
2023-04-18T20:26:30.358Z,100241.88
2023-04-18T20:31:37.512Z,100231.16
2023-04-18T20:36:43.366Z,100252.69
2023-04-18T20:41:52.692Z,100213.88
2023-04-18T20:46:58.406Z,100216.25
2023-04-18T20:52:03.274Z,100218.91
2023-04-18T20:57:08.710Z,100219.91
2023-04-18T21:02:14.296Z,100225.63
2023-04-18T21:07:20.910Z,100243.78
2023-04-18T21:12:26.283Z,100245.03
2023-04-18T21:17:32.384Z,100249.16
2023-04-18T21:22:37.682Z,100245.16
2023-04-18T21:27:43.329Z,100236.91
2023-04-18T21:32:51.396Z,100235.81
2023-04-18T21:37:57.037Z,100228.22
2023-04-18T21:43:02.632Z,100226.59
2023-04-18T21:48:10.727Z,100218.63
2023-04-18T21:53:18.507Z,100216.31
2023-04-18T21:58:24.069Z,100222.00
2023-04-18T22:03:31.105Z,100226.94
2023-04-18T22:08:37.246Z,100221.28
2023-04-18T22:13:45.955Z,100212.56
2023-04-18T22:18:50.845Z,100211.22
2023-04-18T22:23:56.284Z,100184.72
2023-04-18T22:29:01.982Z,100186.19
2023-04-18T22:34:07.621Z,100184.44
2023-04-18T22:39:13.444Z,100189.66
2023-04-18T22:44:19.576Z,100199.16
2023-04-18T22:49:25.322Z,100197.41
2023-04-18T22:54:30.775Z,100196.72
2023-04-18T22:59:36.613Z,100195.25
2023-04-18T23:04:43.725Z,100186.78
2023-04-18T23:09:49.408Z,100183.59
2023-04-18T23:14:55.171Z,100166.13
2023-04-18T23:20:00.693Z,100176.88
2023-04-18T23:25:06.956Z,100166.72
2023-04-18T23:30:12.994Z,100167.25
2023-04-18T23:35:19.766Z,100159.53
2023-04-18T23:40:25.386Z,100158.41
2023-04-18T23:45:30.750Z,100164.47
2023-04-18T23:50:39.281Z,100153.66
2023-04-18T23:55:45.018Z,100161.09
